sensor_id;sensor_type;location;lat;lon;timestamp;P1;durP1;ratioP1;P2;durP2;ratioP2
23236;SDS011;11787;52.018;8.570;2022-11-04T00:02:41;4.03;;;3.30;;
23236;SDS011;11787;52.018;8.570;2022-11-04T00:05:06;6.50;;;3.30;;
23236;SDS011;11787;52.018;8.570;2022-11-04T00:07:32;5.00;;;3.70;;
23236;SDS011;11787;52.018;8.570;2022-11-04T00:10:17;6.25;;;3.80;;
23236;SDS011;11787;52.018;8.570;2022-11-04T00:13:02;5.63;;;3.70;;
23236;SDS011;11787;52.018;8.570;2022-11-04T00:15:28;4.10;;;3.55;;
23236;SDS011;11787;52.018;8.570;2022-11-04T00:18:12;4.22;;;3.67;;
23236;SDS011;11787;52.018;8.570;2022-11-04T00:20:37;4.95;;;3.60;;
23236;SDS011;11787;52.018;8.570;2022-11-04T00:23:21;3.33;;;3.03;;
23236;SDS011;11787;52.018;8.570;2022-11-04T00:26:07;5.50;;;3.47;;
23236;SDS011;11787;52.018;8.570;2022-11-04T00:28:51;4.88;;;3.28;;
23236;SDS011;11787;52.018;8.570;2022-11-04T00:31:18;3.63;;;3.22;;
23236;SDS011;11787;52.018;8.570;2022-11-04T00:34:02;5.32;;;3.45;;
23236;SDS011;11787;52.018;8.570;2022-11-04T00:36:27;5.30;;;3.03;;
23236;SDS011;11787;52.018;8.570;2022-11-04T00:38:53;7.05;;;3.40;;
23236;SDS011;11787;52.018;8.570;2022-11-04T00:41:18;4.65;;;3.30;;
23236;SDS011;11787;52.018;8.570;2022-11-04T00:44:00;4.57;;;3.10;;
23236;SDS011;11787;52.018;8.570;2022-11-04T00:46:28;4.13;;;3.05;;
23236;SDS011;11787;52.018;8.570;2022-11-04T00:48:55;4.65;;;2.95;;
23236;SDS011;11787;52.018;8.570;2022-11-04T00:51:21;3.85;;;3.17;;
23236;SDS011;11787;52.018;8.570;2022-11-04T00:53:46;5.47;;;2.97;;
23236;SDS011;11787;52.018;8.570;2022-11-04T00:56:12;5.97;;;3.05;;
23236;SDS011;11787;52.018;8.570;2022-11-04T00:58:38;4.30;;;3.03;;
23236;SDS011;11787;52.018;8.570;2022-11-04T01:01:07;3.55;;;2.85;;
23236;SDS011;11787;52.018;8.570;2022-11-04T01:03:34;3.50;;;2.88;;
23236;SDS011;11787;52.018;8.570;2022-11-04T01:06:00;2.80;;;2.40;;
23236;SDS011;11787;52.018;8.570;2022-11-04T01:08:25;4.38;;;2.75;;
23236;SDS011;11787;52.018;8.570;2022-11-04T01:10:51;3.10;;;2.38;;
23236;SDS011;11787;52.018;8.570;2022-11-04T01:13:16;2.58;;;2.30;;
23236;SDS011;11787;52.018;8.570;2022-11-04T01:15:42;2.85;;;2.50;;
23236;SDS011;11787;52.018;8.570;2022-11-04T01:18:07;2.85;;;2.33;;
23236;SDS011;11787;52.018;8.570;2022-11-04T01:20:33;2.80;;;2.33;;
23236;SDS011;11787;52.018;8.570;2022-11-04T01:22:59;3.42;;;2.20;;
23236;SDS011;11787;52.018;8.570;2022-11-04T01:25:24;2.33;;;2.00;;
23236;SDS011;11787;52.018;8.570;2022-11-04T01:27:50;2.38;;;2.03;;
23236;SDS011;11787;52.018;8.570;2022-11-04T01:30:15;2.35;;;2.00;;
23236;SDS011;11787;52.018;8.570;2022-11-04T01:32:41;2.47;;;2.15;;
23236;SDS011;11787;52.018;8.570;2022-11-04T01:35:07;4.32;;;1.92;;
23236;SDS011;11787;52.018;8.570;2022-11-04T01:37:33;2.15;;;1.77;;
23236;SDS011;11787;52.018;8.570;2022-11-04T01:39:59;1.52;;;1.30;;
23236;SDS011;11787;52.018;8.570;2022-11-04T01:42:25;2.75;;;1.38;;
23236;SDS011;11787;52.018;8.570;2022-11-04T01:44:51;3.30;;;1.75;;
23236;SDS011;11787;52.018;8.570;2022-11-04T01:47:20;1.88;;;1.67;;
23236;SDS011;11787;52.018;8.570;2022-11-04T01:50:00;1.67;;;1.52;;
23236;SDS011;11787;52.018;8.570;2022-11-04T01:52:55;2.88;;;1.50;;
23236;SDS011;11787;52.018;8.570;2022-11-04T01:55:23;2.22;;;1.70;;
23236;SDS011;11787;52.018;8.570;2022-11-04T01:57:53;2.70;;;1.80;;
23236;SDS011;11787;52.018;8.570;2022-11-04T02:00:22;1.63;;;1.52;;
23236;SDS011;11787;52.018;8.570;2022-11-04T02:02:58;1.75;;;1.65;;
23236;SDS011;11787;52.018;8.570;2022-11-04T02:05:30;3.25;;;1.90;;
23236;SDS011;11787;52.018;8.570;2022-11-04T02:07:56;2.78;;;2.25;;
23236;SDS011;11787;52.018;8.570;2022-11-04T02:10:25;2.88;;;2.50;;
23236;SDS011;11787;52.018;8.570;2022-11-04T02:12:53;3.15;;;2.67;;
23236;SDS011;11787;52.018;8.570;2022-11-04T02:32:37;3.30;;;2.50;;
23236;SDS011;11787;52.018;8.570;2022-11-04T02:35:36;2.50;;;2.20;;
23236;SDS011;11787;52.018;8.570;2022-11-04T02:38:43;2.45;;;2.22;;
23236;SDS011;11787;52.018;8.570;2022-11-04T02:41:40;2.60;;;2.40;;
23236;SDS011;11787;52.018;8.570;2022-11-04T02:44:31;2.67;;;2.38;;
23236;SDS011;11787;52.018;8.570;2022-11-04T02:47:05;5.05;;;3.15;;
23236;SDS011;11787;52.018;8.570;2022-11-04T02:49:37;4.47;;;3.85;;
23236;SDS011;11787;52.018;8.570;2022-11-04T02:52:17;3.70;;;3.38;;
23236;SDS011;11787;52.018;8.570;2022-11-04T02:54:48;4.10;;;3.53;;
23236;SDS011;11787;52.018;8.570;2022-11-04T02:57:27;5.25;;;3.75;;
23236;SDS011;11787;52.018;8.570;2022-11-04T02:59:59;4.88;;;4.38;;
23236;SDS011;11787;52.018;8.570;2022-11-04T03:02:37;5.93;;;4.32;;
23236;SDS011;11787;52.018;8.570;2022-11-04T03:05:17;6.07;;;4.70;;
23236;SDS011;11787;52.018;8.570;2022-11-04T03:07:47;5.28;;;4.55;;
23236;SDS011;11787;52.018;8.570;2022-11-04T03:10:17;4.93;;;4.45;;
23236;SDS011;11787;52.018;8.570;2022-11-04T03:12:59;4.60;;;4.20;;
23236;SDS011;11787;52.018;8.570;2022-11-04T03:15:59;5.03;;;4.53;;
23236;SDS011;11787;52.018;8.570;2022-11-04T03:18:53;4.82;;;4.32;;
23236;SDS011;11787;52.018;8.570;2022-11-04T03:21:31;4.60;;;4.20;;
23236;SDS011;11787;52.018;8.570;2022-11-04T03:23:59;6.00;;;4.22;;
23236;SDS011;11787;52.018;8.570;2022-11-04T03:26:31;9.27;;;4.07;;
23236;SDS011;11787;52.018;8.570;2022-11-04T03:34:45;4.72;;;4.30;;
23236;SDS011;11787;52.018;8.570;2022-11-04T03:37:11;4.82;;;4.43;;
23236;SDS011;11787;52.018;8.570;2022-11-04T03:39:36;4.78;;;4.30;;
23236;SDS011;11787;52.018;8.570;2022-11-04T03:42:04;4.75;;;4.07;;
23236;SDS011;11787;52.018;8.570;2022-11-04T03:44:56;4.75;;;4.03;;
23236;SDS011;11787;52.018;8.570;2022-11-04T03:47:23;5.22;;;4.72;;
23236;SDS011;11787;52.018;8.570;2022-11-04T03:49:51;5.80;;;4.70;;
23236;SDS011;11787;52.018;8.570;2022-11-04T03:52:21;4.90;;;4.47;;
23236;SDS011;11787;52.018;8.570;2022-11-04T03:54:47;5.72;;;4.97;;
23236;SDS011;11787;52.018;8.570;2022-11-04T04:00:37;5.47;;;4.57;;
23236;SDS011;11787;52.018;8.570;2022-11-04T04:03:16;5.13;;;4.60;;
23236;SDS011;11787;52.018;8.570;2022-11-04T04:13:58;6.82;;;5.05;;
23236;SDS011;11787;52.018;8.570;2022-11-04T04:22:39;6.45;;;5.63;;
23236;SDS011;11787;52.018;8.570;2022-11-04T04:25:09;5.57;;;5.07;;
23236;SDS011;11787;52.018;8.570;2022-11-04T04:27:56;6.25;;;4.97;;
23236;SDS011;11787;52.018;8.570;2022-11-04T04:30:23;5.47;;;4.97;;
23236;SDS011;11787;52.018;8.570;2022-11-04T04:32:50;7.65;;;5.03;;
23236;SDS011;11787;52.018;8.570;2022-11-04T04:35:24;6.95;;;4.97;;
23236;SDS011;11787;52.018;8.570;2022-11-04T04:43:58;11.25;;;4.95;;
23236;SDS011;11787;52.018;8.570;2022-11-04T04:46:42;9.07;;;5.30;;
23236;SDS011;11787;52.018;8.570;2022-11-04T04:49:11;6.82;;;5.43;;
23236;SDS011;11787;52.018;8.570;2022-11-04T04:51:38;6.28;;;5.32;;
23236;SDS011;11787;52.018;8.570;2022-11-04T04:54:05;6.50;;;5.45;;
23236;SDS011;11787;52.018;8.570;2022-11-04T04:56:31;6.13;;;5.47;;
23236;SDS011;11787;52.018;8.570;2022-11-04T04:58:57;5.22;;;4.70;;
23236;SDS011;11787;52.018;8.570;2022-11-04T05:01:23;6.40;;;5.32;;
23236;SDS011;11787;52.018;8.570;2022-11-04T05:03:48;6.30;;;5.47;;
23236;SDS011;11787;52.018;8.570;2022-11-04T05:06:14;7.97;;;5.15;;
23236;SDS011;11787;52.018;8.570;2022-11-04T05:08:39;7.25;;;5.28;;
23236;SDS011;11787;52.018;8.570;2022-11-04T05:11:05;5.53;;;4.68;;
23236;SDS011;11787;52.018;8.570;2022-11-04T05:13:30;7.32;;;5.20;;
23236;SDS011;11787;52.018;8.570;2022-11-04T05:15:57;8.57;;;5.63;;
23236;SDS011;11787;52.018;8.570;2022-11-04T05:18:28;5.30;;;4.88;;
23236;SDS011;11787;52.018;8.570;2022-11-04T05:20:53;10.82;;;5.78;;
23236;SDS011;11787;52.018;8.570;2022-11-04T05:23:19;6.32;;;5.32;;
23236;SDS011;11787;52.018;8.570;2022-11-04T05:25:44;7.95;;;5.80;;
23236;SDS011;11787;52.018;8.570;2022-11-04T05:28:10;8.25;;;5.55;;
23236;SDS011;11787;52.018;8.570;2022-11-04T05:30:36;10.63;;;5.85;;
23236;SDS011;11787;52.018;8.570;2022-11-04T05:33:02;12.00;;;6.22;;
23236;SDS011;11787;52.018;8.570;2022-11-04T05:35:28;9.38;;;6.38;;
23236;SDS011;11787;52.018;8.570;2022-11-04T05:37:54;7.28;;;5.85;;
23236;SDS011;11787;52.018;8.570;2022-11-04T05:43:42;9.90;;;5.90;;
23236;SDS011;11787;52.018;8.570;2022-11-04T05:46:07;7.68;;;5.32;;
23236;SDS011;11787;52.018;8.570;2022-11-04T05:48:33;9.27;;;6.60;;
23236;SDS011;11787;52.018;8.570;2022-11-04T05:50:58;12.15;;;6.93;;
23236;SDS011;11787;52.018;8.570;2022-11-04T05:53:24;9.13;;;6.72;;
23236;SDS011;11787;52.018;8.570;2022-11-04T05:55:50;13.65;;;6.85;;
23236;SDS011;11787;52.018;8.570;2022-11-04T05:58:15;8.93;;;5.93;;
23236;SDS011;11787;52.018;8.570;2022-11-04T06:00:41;7.72;;;5.22;;
23236;SDS011;11787;52.018;8.570;2022-11-04T06:03:07;13.40;;;8.00;;
23236;SDS011;11787;52.018;8.570;2022-11-04T06:05:32;8.50;;;6.10;;
23236;SDS011;11787;52.018;8.570;2022-11-04T06:07:58;14.45;;;6.22;;
23236;SDS011;11787;52.018;8.570;2022-11-04T06:10:23;8.07;;;5.15;;
23236;SDS011;11787;52.018;8.570;2022-11-04T06:12:49;8.75;;;5.55;;
23236;SDS011;11787;52.018;8.570;2022-11-04T06:15:15;8.52;;;5.10;;
23236;SDS011;11787;52.018;8.570;2022-11-04T06:17:40;12.80;;;6.20;;
23236;SDS011;11787;52.018;8.570;2022-11-04T06:20:06;11.90;;;5.35;;
23236;SDS011;11787;52.018;8.570;2022-11-04T06:22:32;8.00;;;4.60;;
23236;SDS011;11787;52.018;8.570;2022-11-04T06:24:58;10.65;;;5.35;;
23236;SDS011;11787;52.018;8.570;2022-11-04T06:27:23;7.57;;;4.43;;
23236;SDS011;11787;52.018;8.570;2022-11-04T06:29:49;8.32;;;5.65;;
23236;SDS011;11787;52.018;8.570;2022-11-04T06:32:16;7.88;;;5.20;;
23236;SDS011;11787;52.018;8.570;2022-11-04T06:34:42;10.82;;;5.30;;
23236;SDS011;11787;52.018;8.570;2022-11-04T06:37:08;8.25;;;4.95;;
23236;SDS011;11787;52.018;8.570;2022-11-04T06:39:34;7.20;;;5.10;;
23236;SDS011;11787;52.018;8.570;2022-11-04T06:42:00;7.07;;;4.97;;
23236;SDS011;11787;52.018;8.570;2022-11-04T06:44:26;8.77;;;4.50;;
23236;SDS011;11787;52.018;8.570;2022-11-04T06:46:52;8.05;;;4.72;;
23236;SDS011;11787;52.018;8.570;2022-11-04T06:49:18;7.50;;;4.22;;
23236;SDS011;11787;52.018;8.570;2022-11-04T06:51:46;9.48;;;4.85;;
23236;SDS011;11787;52.018;8.570;2022-11-04T06:54:12;7.70;;;4.38;;
23236;SDS011;11787;52.018;8.570;2022-11-04T06:56:38;7.90;;;4.57;;
23236;SDS011;11787;52.018;8.570;2022-11-04T07:02:26;12.20;;;5.00;;
23236;SDS011;11787;52.018;8.570;2022-11-04T07:04:52;11.88;;;5.55;;
23236;SDS011;11787;52.018;8.570;2022-11-04T07:07:18;10.70;;;5.38;;
23236;SDS011;11787;52.018;8.570;2022-11-04T07:09:43;11.85;;;5.47;;
23236;SDS011;11787;52.018;8.570;2022-11-04T07:12:09;7.72;;;5.38;;
23236;SDS011;11787;52.018;8.570;2022-11-04T07:14:34;7.82;;;4.82;;
23236;SDS011;11787;52.018;8.570;2022-11-04T07:17:00;9.10;;;5.45;;
23236;SDS011;11787;52.018;8.570;2022-11-04T07:19:26;12.85;;;5.75;;
23236;SDS011;11787;52.018;8.570;2022-11-04T07:21:51;11.38;;;5.68;;
23236;SDS011;11787;52.018;8.570;2022-11-04T07:24:17;10.40;;;5.72;;
23236;SDS011;11787;52.018;8.570;2022-11-04T07:26:42;10.93;;;5.78;;
23236;SDS011;11787;52.018;8.570;2022-11-04T07:29:08;8.73;;;4.93;;
23236;SDS011;11787;52.018;8.570;2022-11-04T07:31:35;10.38;;;4.63;;
23236;SDS011;11787;52.018;8.570;2022-11-04T07:34:01;12.02;;;5.68;;
23236;SDS011;11787;52.018;8.570;2022-11-04T07:36:27;8.48;;;4.32;;
23236;SDS011;11787;52.018;8.570;2022-11-04T07:38:53;13.18;;;5.22;;
23236;SDS011;11787;52.018;8.570;2022-11-04T07:41:19;8.60;;;4.63;;
23236;SDS011;11787;52.018;8.570;2022-11-04T07:43:48;7.82;;;4.47;;
23236;SDS011;11787;52.018;8.570;2022-11-04T07:46:16;10.07;;;4.78;;
23236;SDS011;11787;52.018;8.570;2022-11-04T07:48:42;9.45;;;4.25;;
23236;SDS011;11787;52.018;8.570;2022-11-04T07:51:09;9.32;;;4.72;;
23236;SDS011;11787;52.018;8.570;2022-11-04T07:53:36;11.30;;;5.20;;
23236;SDS011;11787;52.018;8.570;2022-11-04T07:56:03;11.02;;;4.28;;
23236;SDS011;11787;52.018;8.570;2022-11-04T07:58:30;8.00;;;4.10;;
23236;SDS011;11787;52.018;8.570;2022-11-04T08:00:59;6.97;;;4.38;;
23236;SDS011;11787;52.018;8.570;2022-11-04T08:06:51;7.88;;;4.10;;
23236;SDS011;11787;52.018;8.570;2022-11-04T08:09:17;12.85;;;4.60;;
23236;SDS011;11787;52.018;8.570;2022-11-04T08:11:42;10.60;;;4.22;;
23236;SDS011;11787;52.018;8.570;2022-11-04T08:14:08;6.35;;;3.85;;
23236;SDS011;11787;52.018;8.570;2022-11-04T08:16:34;7.28;;;3.53;;
23236;SDS011;11787;52.018;8.570;2022-11-04T08:19:00;8.07;;;3.60;;
23236;SDS011;11787;52.018;8.570;2022-11-04T08:21:27;6.57;;;3.40;;
23236;SDS011;11787;52.018;8.570;2022-11-04T08:23:53;8.88;;;3.42;;
23236;SDS011;11787;52.018;8.570;2022-11-04T08:26:19;10.32;;;3.13;;
23236;SDS011;11787;52.018;8.570;2022-11-04T08:28:47;11.13;;;3.60;;
23236;SDS011;11787;52.018;8.570;2022-11-04T08:31:24;7.63;;;3.22;;
23236;SDS011;11787;52.018;8.570;2022-11-04T08:33:51;9.88;;;3.50;;
23236;SDS011;11787;52.018;8.570;2022-11-04T08:36:37;10.63;;;3.05;;
23236;SDS011;11787;52.018;8.570;2022-11-04T08:39:04;7.38;;;3.05;;
23236;SDS011;11787;52.018;8.570;2022-11-04T08:41:32;7.18;;;2.72;;
23236;SDS011;11787;52.018;8.570;2022-11-04T08:43:58;8.05;;;3.25;;
23236;SDS011;11787;52.018;8.570;2022-11-04T08:46:26;7.13;;;3.38;;
23236;SDS011;11787;52.018;8.570;2022-11-04T08:48:53;7.22;;;3.03;;
23236;SDS011;11787;52.018;8.570;2022-11-04T08:51:19;8.52;;;2.88;;
23236;SDS011;11787;52.018;8.570;2022-11-04T08:53:46;10.63;;;3.15;;
23236;SDS011;11787;52.018;8.570;2022-11-04T08:56:17;8.80;;;3.20;;
23236;SDS011;11787;52.018;8.570;2022-11-04T08:58:45;5.95;;;2.35;;
23236;SDS011;11787;52.018;8.570;2022-11-04T09:01:11;10.02;;;2.85;;
23236;SDS011;11787;52.018;8.570;2022-11-04T09:07:00;7.85;;;2.72;;
23236;SDS011;11787;52.018;8.570;2022-11-04T09:09:26;7.60;;;2.38;;
23236;SDS011;11787;52.018;8.570;2022-11-04T09:11:52;7.70;;;2.47;;
23236;SDS011;11787;52.018;8.570;2022-11-04T09:14:19;8.68;;;2.78;;
23236;SDS011;11787;52.018;8.570;2022-11-04T09:16:45;10.18;;;2.60;;
23236;SDS011;11787;52.018;8.570;2022-11-04T09:19:10;10.80;;;3.45;;
23236;SDS011;11787;52.018;8.570;2022-11-04T09:21:36;11.02;;;3.25;;
23236;SDS011;11787;52.018;8.570;2022-11-04T09:24:01;8.73;;;3.17;;
23236;SDS011;11787;52.018;8.570;2022-11-04T09:26:28;8.63;;;2.75;;
23236;SDS011;11787;52.018;8.570;2022-11-04T09:28:56;9.95;;;2.63;;
23236;SDS011;11787;52.018;8.570;2022-11-04T09:31:22;12.38;;;3.08;;
23236;SDS011;11787;52.018;8.570;2022-11-04T09:33:48;8.07;;;2.90;;
23236;SDS011;11787;52.018;8.570;2022-11-04T09:36:14;7.32;;;2.20;;
23236;SDS011;11787;52.018;8.570;2022-11-04T09:38:40;11.00;;;2.78;;
23236;SDS011;11787;52.018;8.570;2022-11-04T09:44:00;7.88;;;2.78;;
23236;SDS011;11787;52.018;8.570;2022-11-04T09:46:48;12.52;;;3.13;;
23236;SDS011;11787;52.018;8.570;2022-11-04T09:49:16;7.72;;;4.05;;
23236;SDS011;11787;52.018;8.570;2022-11-04T09:51:42;10.20;;;3.35;;
23236;SDS011;11787;52.018;8.570;2022-11-04T09:54:14;10.30;;;3.60;;
23236;SDS011;11787;52.018;8.570;2022-11-04T09:56:49;10.30;;;3.88;;
23236;SDS011;11787;52.018;8.570;2022-11-04T09:59:19;10.20;;;3.80;;
23236;SDS011;11787;52.018;8.570;2022-11-04T10:01:52;9.85;;;3.85;;
23236;SDS011;11787;52.018;8.570;2022-11-04T10:13:17;9.55;;;4.72;;
23236;SDS011;11787;52.018;8.570;2022-11-04T10:21:46;13.07;;;4.78;;
23236;SDS011;11787;52.018;8.570;2022-11-04T10:26:49;9.48;;;4.25;;
23236;SDS011;11787;52.018;8.570;2022-11-04T10:31:53;9.43;;;4.32;;
23236;SDS011;11787;52.018;8.570;2022-11-04T10:37:44;9.98;;;4.03;;
23236;SDS011;11787;52.018;8.570;2022-11-04T10:42:44;9.95;;;4.22;;
23236;SDS011;11787;52.018;8.570;2022-11-04T10:45:13;10.73;;;4.32;;
23236;SDS011;11787;52.018;8.570;2022-11-04T10:50:46;13.45;;;4.13;;
23236;SDS011;11787;52.018;8.570;2022-11-04T10:53:18;7.90;;;3.92;;
23236;SDS011;11787;52.018;8.570;2022-11-04T10:58:19;8.40;;;4.07;;
23236;SDS011;11787;52.018;8.570;2022-11-04T11:00:48;9.90;;;3.95;;
23236;SDS011;11787;52.018;8.570;2022-11-04T11:06:35;8.38;;;3.75;;
23236;SDS011;11787;52.018;8.570;2022-11-04T11:09:12;7.63;;;3.70;;
23236;SDS011;11787;52.018;8.570;2022-11-04T11:28:58;8.85;;;6.15;;
23236;SDS011;11787;52.018;8.570;2022-11-04T11:34:48;10.98;;;5.60;;
23236;SDS011;11787;52.018;8.570;2022-11-04T11:37:21;8.52;;;5.35;;
23236;SDS011;11787;52.018;8.570;2022-11-04T11:39:48;10.93;;;5.47;;
23236;SDS011;11787;52.018;8.570;2022-11-04T11:42:15;12.15;;;5.50;;
23236;SDS011;11787;52.018;8.570;2022-11-04T11:44:47;9.15;;;6.22;;
23236;SDS011;11787;52.018;8.570;2022-11-04T11:47:21;9.60;;;5.35;;
23236;SDS011;11787;52.018;8.570;2022-11-04T11:56:25;10.18;;;6.38;;
23236;SDS011;11787;52.018;8.570;2022-11-04T12:05:10;12.05;;;6.28;;
23236;SDS011;11787;52.018;8.570;2022-11-04T12:07:43;10.00;;;6.05;;
23236;SDS011;11787;52.018;8.570;2022-11-04T12:16:31;10.63;;;6.10;;
23236;SDS011;11787;52.018;8.570;2022-11-04T12:21:46;8.63;;;5.68;;
23236;SDS011;11787;52.018;8.570;2022-11-04T12:28:25;11.02;;;5.28;;
23236;SDS011;11787;52.018;8.570;2022-11-04T12:34:27;11.68;;;5.80;;
23236;SDS011;11787;52.018;8.570;2022-11-04T12:43:00;8.77;;;4.47;;
23236;SDS011;11787;52.018;8.570;2022-11-04T12:45:52;7.88;;;4.50;;
23236;SDS011;11787;52.018;8.570;2022-11-04T12:53:35;10.98;;;4.10;;
23236;SDS011;11787;52.018;8.570;2022-11-04T13:00:22;7.47;;;3.13;;
23236;SDS011;11787;52.018;8.570;2022-11-04T13:07:52;8.45;;;3.13;;
23236;SDS011;11787;52.018;8.570;2022-11-04T13:10:48;10.38;;;3.08;;
23236;SDS011;11787;52.018;8.570;2022-11-04T13:16:40;6.30;;;2.50;;
23236;SDS011;11787;52.018;8.570;2022-11-04T13:19:13;5.43;;;2.75;;
23236;SDS011;11787;52.018;8.570;2022-11-04T13:27:38;7.35;;;2.67;;
23236;SDS011;11787;52.018;8.570;2022-11-04T13:41:50;10.95;;;3.17;;
23236;SDS011;11787;52.018;8.570;2022-11-04T13:44:28;9.20;;;3.00;;
23236;SDS011;11787;52.018;8.570;2022-11-04T13:46:56;7.75;;;2.90;;
23236;SDS011;11787;52.018;8.570;2022-11-04T13:49:29;10.68;;;3.05;;
23236;SDS011;11787;52.018;8.570;2022-11-04T13:57:05;7.40;;;2.70;;
23236;SDS011;11787;52.018;8.570;2022-11-04T13:59:34;7.03;;;2.60;;
23236;SDS011;11787;52.018;8.570;2022-11-04T14:04:35;8.45;;;2.50;;
23236;SDS011;11787;52.018;8.570;2022-11-04T14:07:02;5.75;;;2.25;;
23236;SDS011;11787;52.018;8.570;2022-11-04T14:14:39;4.13;;;1.95;;
23236;SDS011;11787;52.018;8.570;2022-11-04T14:20:41;4.55;;;1.50;;
23236;SDS011;11787;52.018;8.570;2022-11-04T14:26:14;6.80;;;1.77;;
23236;SDS011;11787;52.018;8.570;2022-11-04T14:32:23;4.13;;;1.88;;
23236;SDS011;11787;52.018;8.570;2022-11-04T14:35:01;10.65;;;2.63;;
23236;SDS011;11787;52.018;8.570;2022-11-04T14:37:31;8.65;;;2.15;;
23236;SDS011;11787;52.018;8.570;2022-11-04T14:39:59;7.00;;;2.90;;
23236;SDS011;11787;52.018;8.570;2022-11-04T14:42:45;8.07;;;3.00;;
23236;SDS011;11787;52.018;8.570;2022-11-04T14:45:21;6.30;;;2.55;;
23236;SDS011;11787;52.018;8.570;2022-11-04T14:48:00;8.40;;;3.00;;
23236;SDS011;11787;52.018;8.570;2022-11-04T14:54:09;8.52;;;2.40;;
23236;SDS011;11787;52.018;8.570;2022-11-04T14:56:42;6.97;;;2.13;;
23236;SDS011;11787;52.018;8.570;2022-11-04T14:59:16;8.35;;;2.53;;
23236;SDS011;11787;52.018;8.570;2022-11-04T15:01:45;6.57;;;2.40;;
23236;SDS011;11787;52.018;8.570;2022-11-04T15:04:15;5.65;;;2.45;;
23236;SDS011;11787;52.018;8.570;2022-11-04T15:07:00;8.43;;;2.60;;
23236;SDS011;11787;52.018;8.570;2022-11-04T15:09:29;5.15;;;2.00;;
23236;SDS011;11787;52.018;8.570;2022-11-04T15:14:58;6.70;;;2.47;;
23236;SDS011;11787;52.018;8.570;2022-11-04T15:17:25;7.13;;;2.60;;
23236;SDS011;11787;52.018;8.570;2022-11-04T15:19:54;6.78;;;2.63;;
23236;SDS011;11787;52.018;8.570;2022-11-04T15:22:23;8.45;;;3.05;;
23236;SDS011;11787;52.018;8.570;2022-11-04T15:24:50;5.03;;;2.28;;
23236;SDS011;11787;52.018;8.570;2022-11-04T15:27:17;6.97;;;1.92;;
23236;SDS011;11787;52.018;8.570;2022-11-04T15:29:56;5.30;;;2.20;;
23236;SDS011;11787;52.018;8.570;2022-11-04T15:32:23;6.85;;;2.13;;
23236;SDS011;11787;52.018;8.570;2022-11-04T15:34:49;5.57;;;2.47;;
23236;SDS011;11787;52.018;8.570;2022-11-04T15:37:15;6.57;;;2.42;;
23236;SDS011;11787;52.018;8.570;2022-11-04T15:43:03;5.15;;;2.03;;
23236;SDS011;11787;52.018;8.570;2022-11-04T15:45:37;5.10;;;2.00;;
23236;SDS011;11787;52.018;8.570;2022-11-04T15:51:36;6.95;;;2.10;;
23236;SDS011;11787;52.018;8.570;2022-11-04T15:54:05;6.72;;;1.92;;
23236;SDS011;11787;52.018;8.570;2022-11-04T15:56:43;9.77;;;2.00;;
23236;SDS011;11787;52.018;8.570;2022-11-04T16:01:48;5.05;;;1.90;;
23236;SDS011;11787;52.018;8.570;2022-11-04T16:04:16;7.32;;;2.10;;
23236;SDS011;11787;52.018;8.570;2022-11-04T16:06:44;5.55;;;2.00;;
23236;SDS011;11787;52.018;8.570;2022-11-04T16:11:37;7.60;;;2.08;;
23236;SDS011;11787;52.018;8.570;2022-11-04T16:14:22;7.38;;;2.30;;
23236;SDS011;11787;52.018;8.570;2022-11-04T16:16:50;7.07;;;2.55;;
23236;SDS011;11787;52.018;8.570;2022-11-04T16:19:18;9.18;;;2.30;;
23236;SDS011;11787;52.018;8.570;2022-11-04T16:21:46;7.60;;;2.03;;
23236;SDS011;11787;52.018;8.570;2022-11-04T16:26:45;2.93;;;1.90;;
23236;SDS011;11787;52.018;8.570;2022-11-04T16:29:16;4.38;;;1.30;;
23236;SDS011;11787;52.018;8.570;2022-11-04T16:32:02;3.50;;;1.30;;
23236;SDS011;11787;52.018;8.570;2022-11-04T16:34:31;4.15;;;1.40;;
23236;SDS011;11787;52.018;8.570;2022-11-04T16:36:57;2.90;;;1.50;;
23236;SDS011;11787;52.018;8.570;2022-11-04T16:39:23;4.97;;;2.08;;
23236;SDS011;11787;52.018;8.570;2022-11-04T16:41:48;5.80;;;2.58;;
23236;SDS011;11787;52.018;8.570;2022-11-04T16:47:37;3.20;;;1.67;;
23236;SDS011;11787;52.018;8.570;2022-11-04T16:50:05;5.15;;;1.88;;
23236;SDS011;11787;52.018;8.570;2022-11-04T16:52:39;6.00;;;2.08;;
23236;SDS011;11787;52.018;8.570;2022-11-04T16:55:04;3.10;;;1.75;;
23236;SDS011;11787;52.018;8.570;2022-11-04T16:57:30;5.60;;;2.55;;
23236;SDS011;11787;52.018;8.570;2022-11-04T16:59:56;4.15;;;2.88;;
23236;SDS011;11787;52.018;8.570;2022-11-04T17:02:26;5.10;;;3.17;;
23236;SDS011;11787;52.018;8.570;2022-11-04T17:08:18;5.82;;;3.20;;
23236;SDS011;11787;52.018;8.570;2022-11-04T17:10:43;4.75;;;3.10;;
23236;SDS011;11787;52.018;8.570;2022-11-04T17:16:31;6.32;;;2.95;;
23236;SDS011;11787;52.018;8.570;2022-11-04T17:18:56;3.65;;;2.80;;
23236;SDS011;11787;52.018;8.570;2022-11-04T17:21:22;5.35;;;3.20;;
23236;SDS011;11787;52.018;8.570;2022-11-04T17:23:48;9.80;;;3.63;;
23236;SDS011;11787;52.018;8.570;2022-11-04T17:26:13;7.55;;;3.33;;
23236;SDS011;11787;52.018;8.570;2022-11-04T17:28:39;8.52;;;3.88;;
23236;SDS011;11787;52.018;8.570;2022-11-04T17:31:05;8.32;;;3.88;;
23236;SDS011;11787;52.018;8.570;2022-11-04T17:33:30;5.72;;;3.45;;
23236;SDS011;11787;52.018;8.570;2022-11-04T17:39:18;8.50;;;5.10;;
23236;SDS011;11787;52.018;8.570;2022-11-04T17:41:44;8.32;;;4.55;;
23236;SDS011;11787;52.018;8.570;2022-11-04T17:44:28;9.02;;;5.63;;
23236;SDS011;11787;52.018;8.570;2022-11-04T17:50:16;7.90;;;4.45;;
23236;SDS011;11787;52.018;8.570;2022-11-04T17:52:41;8.18;;;5.40;;
23236;SDS011;11787;52.018;8.570;2022-11-04T17:55:08;8.90;;;5.03;;
23236;SDS011;11787;52.018;8.570;2022-11-04T18:00:56;8.85;;;4.95;;
23236;SDS011;11787;52.018;8.570;2022-11-04T18:03:22;8.85;;;5.60;;
23236;SDS011;11787;52.018;8.570;2022-11-04T18:05:47;10.05;;;5.60;;
23236;SDS011;11787;52.018;8.570;2022-11-04T18:08:21;8.48;;;5.15;;
23236;SDS011;11787;52.018;8.570;2022-11-04T18:14:08;10.68;;;5.22;;
23236;SDS011;11787;52.018;8.570;2022-11-04T18:16:35;9.32;;;4.78;;
23236;SDS011;11787;52.018;8.570;2022-11-04T18:19:00;10.02;;;5.15;;
23236;SDS011;11787;52.018;8.570;2022-11-04T18:21:26;7.47;;;5.18;;
23236;SDS011;11787;52.018;8.570;2022-11-04T18:23:55;8.05;;;4.85;;
23236;SDS011;11787;52.018;8.570;2022-11-04T18:26:21;8.20;;;5.10;;
23236;SDS011;11787;52.018;8.570;2022-11-04T18:32:09;8.55;;;4.80;;
23236;SDS011;11787;52.018;8.570;2022-11-04T18:34:35;6.07;;;4.65;;
23236;SDS011;11787;52.018;8.570;2022-11-04T18:37:00;8.63;;;5.10;;
23236;SDS011;11787;52.018;8.570;2022-11-04T18:39:26;6.72;;;4.45;;
23236;SDS011;11787;52.018;8.570;2022-11-04T18:41:52;10.38;;;5.05;;
23236;SDS011;11787;52.018;8.570;2022-11-04T18:44:18;9.93;;;5.28;;
23236;SDS011;11787;52.018;8.570;2022-11-04T18:46:45;8.98;;;5.47;;
23236;SDS011;11787;52.018;8.570;2022-11-04T18:49:12;7.25;;;4.88;;
23236;SDS011;11787;52.018;8.570;2022-11-04T18:51:38;8.15;;;5.22;;
23236;SDS011;11787;52.018;8.570;2022-11-04T18:54:05;9.07;;;5.03;;
23236;SDS011;11787;52.018;8.570;2022-11-04T18:56:32;7.72;;;4.78;;
23236;SDS011;11787;52.018;8.570;2022-11-04T19:02:20;7.30;;;5.20;;
23236;SDS011;11787;52.018;8.570;2022-11-04T19:08:11;7.22;;;5.03;;
23236;SDS011;11787;52.018;8.570;2022-11-04T19:13:59;9.32;;;5.38;;
23236;SDS011;11787;52.018;8.570;2022-11-04T19:16:27;7.50;;;4.82;;
23236;SDS011;11787;52.018;8.570;2022-11-04T19:18:54;8.38;;;4.97;;
23236;SDS011;11787;52.018;8.570;2022-11-04T19:24:45;7.35;;;5.38;;
23236;SDS011;11787;52.018;8.570;2022-11-04T19:27:11;7.65;;;5.28;;
23236;SDS011;11787;52.018;8.570;2022-11-04T19:29:36;9.98;;;5.45;;
23236;SDS011;11787;52.018;8.570;2022-11-04T19:32:02;6.68;;;5.00;;
23236;SDS011;11787;52.018;8.570;2022-11-04T19:37:50;8.70;;;5.90;;